Anmoore, West Virginia
Current Conditions -  °F | °C
As of 5:04 PM on Thursday 27 Nov 2014 (Local Time) from KCKB Reporting Station
Light Snow Light Snow  
Wind Chill: 24°   Ceiling: 900
Heat Index: 31°   Visibility: 2.5mi
Dew Point: 29°   Wind: 7mph
Humidity: 92%   Direction: 270°W
Pressure: 30.17"   Gusts: NA
Location:  39.26°N, 80.29°W
Report Text: KCKB 272204Z 27006KT 2 1/2SM -SN BR BKN009 OVC016 M01/M02 A3017 RMK AO2 P0000 T10061017
Loading
Personal Weather Stations






























Interactive Weather Map New forecast layout! Learn more

10-Day Weather Forecast

Advertisements
Track Severe Weather on mobile